sensor_id;sensor_type;location;lat;lon;timestamp;temperature;humidity
19622;DHT22;9958;33.196;-97.114;2023-03-12T00:00:32;28.90;86.70
19622;DHT22;9958;33.196;-97.114;2023-03-12T00:03:00;28.80;86.60
19622;DHT22;9958;33.196;-97.114;2023-03-12T00:05:30;28.70;85.40
19622;DHT22;9958;33.196;-97.114;2023-03-12T00:07:58;28.60;85.20
19622;DHT22;9958;33.196;-97.114;2023-03-12T00:10:27;28.50;85.70
19622;DHT22;9958;33.196;-97.114;2023-03-12T00:12:55;28.40;85.40
19622;DHT22;9958;33.196;-97.114;2023-03-12T00:15:24;28.30;85.90
19622;DHT22;9958;33.196;-97.114;2023-03-12T00:17:52;28.10;86.10
19622;DHT22;9958;33.196;-97.114;2023-03-12T00:20:21;28.00;86.40
19622;DHT22;9958;33.196;-97.114;2023-03-12T00:22:51;27.90;86.80
19622;DHT22;9958;33.196;-97.114;2023-03-12T00:25:19;27.80;87.10
19622;DHT22;9958;33.196;-97.114;2023-03-12T00:27:48;27.70;88.20
19622;DHT22;9958;33.196;-97.114;2023-03-12T00:30:16;27.60;88.70
19622;DHT22;9958;33.196;-97.114;2023-03-12T00:32:44;27.40;88.60
19622;DHT22;9958;33.196;-97.114;2023-03-12T00:35:13;27.40;88.90
19622;DHT22;9958;33.196;-97.114;2023-03-12T00:37:41;27.20;89.40
19622;DHT22;9958;33.196;-97.114;2023-03-12T00:40:12;27.10;89.80
19622;DHT22;9958;33.196;-97.114;2023-03-12T00:42:41;27.00;90.10
19622;DHT22;9958;33.196;-97.114;2023-03-12T00:45:10;26.90;90.40
19622;DHT22;9958;33.196;-97.114;2023-03-12T00:47:38;26.80;90.50
19622;DHT22;9958;33.196;-97.114;2023-03-12T00:50:07;26.70;90.70
19622;DHT22;9958;33.196;-97.114;2023-03-12T00:52:36;26.60;90.90
19622;DHT22;9958;33.196;-97.114;2023-03-12T00:55:04;26.50;90.90
19622;DHT22;9958;33.196;-97.114;2023-03-12T00:57:34;26.40;91.20
19622;DHT22;9958;33.196;-97.114;2023-03-12T01:00:04;26.40;91.50
19622;DHT22;9958;33.196;-97.114;2023-03-12T01:02:36;26.30;91.70
19622;DHT22;9958;33.196;-97.114;2023-03-12T01:05:05;26.20;92.00
19622;DHT22;9958;33.196;-97.114;2023-03-12T01:07:34;26.10;92.50
19622;DHT22;9958;33.196;-97.114;2023-03-12T01:10:03;26.00;92.50
19622;DHT22;9958;33.196;-97.114;2023-03-12T01:12:33;25.90;92.70
19622;DHT22;9958;33.196;-97.114;2023-03-12T01:15:02;25.90;92.80
19622;DHT22;9958;33.196;-97.114;2023-03-12T01:17:31;25.80;93.10
19622;DHT22;9958;33.196;-97.114;2023-03-12T01:19:59;25.70;93.20
19622;DHT22;9958;33.196;-97.114;2023-03-12T01:22:28;25.60;93.30
19622;DHT22;9958;33.196;-97.114;2023-03-12T01:24:56;25.60;93.50
19622;DHT22;9958;33.196;-97.114;2023-03-12T01:27:24;25.50;93.90
19622;DHT22;9958;33.196;-97.114;2023-03-12T01:29:55;25.40;93.90
19622;DHT22;9958;33.196;-97.114;2023-03-12T01:32:23;25.30;93.80
19622;DHT22;9958;33.196;-97.114;2023-03-12T01:34:51;25.20;94.00
19622;DHT22;9958;33.196;-97.114;2023-03-12T01:37:20;25.10;94.20
19622;DHT22;9958;33.196;-97.114;2023-03-12T01:39:48;25.00;94.50
19622;DHT22;9958;33.196;-97.114;2023-03-12T01:42:17;24.90;94.80
19622;DHT22;9958;33.196;-97.114;2023-03-12T01:44:50;24.90;95.20
19622;DHT22;9958;33.196;-97.114;2023-03-12T01:47:20;24.70;95.30
19622;DHT22;9958;33.196;-97.114;2023-03-12T01:49:49;24.70;95.50
19622;DHT22;9958;33.196;-97.114;2023-03-12T01:52:20;24.60;95.80
19622;DHT22;9958;33.196;-97.114;2023-03-12T01:54:53;24.50;96.40
19622;DHT22;9958;33.196;-97.114;2023-03-12T01:57:24;24.40;96.40
19622;DHT22;9958;33.196;-97.114;2023-03-12T01:59:55;24.30;96.50
19622;DHT22;9958;33.196;-97.114;2023-03-12T02:02:28;24.30;96.80
19622;DHT22;9958;33.196;-97.114;2023-03-12T02:05:02;24.20;96.80
19622;DHT22;9958;33.196;-97.114;2023-03-12T02:07:33;24.10;95.40
19622;DHT22;9958;33.196;-97.114;2023-03-12T02:10:03;24.00;93.80
19622;DHT22;9958;33.196;-97.114;2023-03-12T02:12:31;24.00;90.40
19622;DHT22;9958;33.196;-97.114;2023-03-12T02:15:00;24.00;89.40
19622;DHT22;9958;33.196;-97.114;2023-03-12T02:17:30;24.10;89.30
19622;DHT22;9958;33.196;-97.114;2023-03-12T02:20:06;24.20;85.20
19622;DHT22;9958;33.196;-97.114;2023-03-12T02:22:37;24.30;86.00
19622;DHT22;9958;33.196;-97.114;2023-03-12T02:25:22;24.40;86.10
19622;DHT22;9958;33.196;-97.114;2023-03-12T02:27:56;24.40;86.40
19622;DHT22;9958;33.196;-97.114;2023-03-12T02:30:26;24.40;87.00
19622;DHT22;9958;33.196;-97.114;2023-03-12T02:32:56;24.50;87.80
19622;DHT22;9958;33.196;-97.114;2023-03-12T02:35:25;24.50;88.50
19622;DHT22;9958;33.196;-97.114;2023-03-12T02:37:55;24.50;89.00
19622;DHT22;9958;33.196;-97.114;2023-03-12T02:40:28;24.50;89.40
19622;DHT22;9958;33.196;-97.114;2023-03-12T02:42:58;24.50;90.00
19622;DHT22;9958;33.196;-97.114;2023-03-12T02:45:27;24.50;90.30
19622;DHT22;9958;33.196;-97.114;2023-03-12T02:47:56;24.50;90.90
19622;DHT22;9958;33.196;-97.114;2023-03-12T02:50:24;24.50;91.10
19622;DHT22;9958;33.196;-97.114;2023-03-12T02:52:53;24.40;91.00
19622;DHT22;9958;33.196;-97.114;2023-03-12T02:55:21;24.40;91.10
19622;DHT22;9958;33.196;-97.114;2023-03-12T02:57:51;24.30;91.20
19622;DHT22;9958;33.196;-97.114;2023-03-12T03:00:20;24.30;91.20
19622;DHT22;9958;33.196;-97.114;2023-03-12T03:02:48;24.30;91.10
19622;DHT22;9958;33.196;-97.114;2023-03-12T03:05:17;24.20;91.20
19622;DHT22;9958;33.196;-97.114;2023-03-12T03:07:45;24.10;91.30
19622;DHT22;9958;33.196;-97.114;2023-03-12T03:10:14;24.10;91.60
19622;DHT22;9958;33.196;-97.114;2023-03-12T03:12:43;24.00;91.90
19622;DHT22;9958;33.196;-97.114;2023-03-12T03:15:13;23.90;91.80
19622;DHT22;9958;33.196;-97.114;2023-03-12T03:17:41;23.80;91.90
19622;DHT22;9958;33.196;-97.114;2023-03-12T03:20:10;23.80;91.90
19622;DHT22;9958;33.196;-97.114;2023-03-12T03:22:38;23.60;92.00
19622;DHT22;9958;33.196;-97.114;2023-03-12T03:25:08;23.50;92.00
19622;DHT22;9958;33.196;-97.114;2023-03-12T03:27:37;23.40;92.40
19622;DHT22;9958;33.196;-97.114;2023-03-12T03:30:06;23.30;92.30
19622;DHT22;9958;33.196;-97.114;2023-03-12T03:32:37;23.10;92.30
19622;DHT22;9958;33.196;-97.114;2023-03-12T03:35:06;22.90;92.50
19622;DHT22;9958;33.196;-97.114;2023-03-12T03:37:35;22.90;92.70
19622;DHT22;9958;33.196;-97.114;2023-03-12T03:40:04;22.70;92.90
19622;DHT22;9958;33.196;-97.114;2023-03-12T03:42:32;22.70;93.20
19622;DHT22;9958;33.196;-97.114;2023-03-12T03:45:01;22.60;93.30
19622;DHT22;9958;33.196;-97.114;2023-03-12T03:47:29;22.50;93.50
19622;DHT22;9958;33.196;-97.114;2023-03-12T03:49:59;22.40;93.50
19622;DHT22;9958;33.196;-97.114;2023-03-12T03:52:27;22.30;93.70
19622;DHT22;9958;33.196;-97.114;2023-03-12T03:54:55;22.20;93.80
19622;DHT22;9958;33.196;-97.114;2023-03-12T03:57:25;22.20;94.00
19622;DHT22;9958;33.196;-97.114;2023-03-12T03:59:53;22.10;94.00
19622;DHT22;9958;33.196;-97.114;2023-03-12T04:02:21;22.10;94.10
19622;DHT22;9958;33.196;-97.114;2023-03-12T04:04:50;22.10;94.20
19622;DHT22;9958;33.196;-97.114;2023-03-12T04:07:19;22.00;94.40
19622;DHT22;9958;33.196;-97.114;2023-03-12T04:09:48;22.00;94.30
19622;DHT22;9958;33.196;-97.114;2023-03-12T04:12:17;21.90;94.50
19622;DHT22;9958;33.196;-97.114;2023-03-12T04:14:45;21.90;94.60
19622;DHT22;9958;33.196;-97.114;2023-03-12T04:17:13;21.80;94.70
19622;DHT22;9958;33.196;-97.114;2023-03-12T04:19:42;21.70;94.80
19622;DHT22;9958;33.196;-97.114;2023-03-12T04:22:10;21.70;95.10
19622;DHT22;9958;33.196;-97.114;2023-03-12T04:24:40;21.60;95.20
19622;DHT22;9958;33.196;-97.114;2023-03-12T04:27:08;21.60;95.20
19622;DHT22;9958;33.196;-97.114;2023-03-12T04:29:37;21.50;95.40
19622;DHT22;9958;33.196;-97.114;2023-03-12T04:32:07;21.40;95.50
19622;DHT22;9958;33.196;-97.114;2023-03-12T04:34:35;21.30;95.70
19622;DHT22;9958;33.196;-97.114;2023-03-12T04:37:04;21.20;96.10
19622;DHT22;9958;33.196;-97.114;2023-03-12T04:39:32;21.10;96.80
19622;DHT22;9958;33.196;-97.114;2023-03-12T04:42:02;21.10;96.80
19622;DHT22;9958;33.196;-97.114;2023-03-12T04:44:30;21.00;97.20
19622;DHT22;9958;33.196;-97.114;2023-03-12T04:46:59;20.90;97.30
19622;DHT22;9958;33.196;-97.114;2023-03-12T04:49:27;20.90;97.60
19622;DHT22;9958;33.196;-97.114;2023-03-12T04:51:56;20.80;98.00
19622;DHT22;9958;33.196;-97.114;2023-03-12T04:54:24;20.70;98.30
19622;DHT22;9958;33.196;-97.114;2023-03-12T04:56:53;20.60;98.50
19622;DHT22;9958;33.196;-97.114;2023-03-12T04:59:23;20.50;98.80
19622;DHT22;9958;33.196;-97.114;2023-03-12T05:01:51;20.50;98.90
19622;DHT22;9958;33.196;-97.114;2023-03-12T05:04:19;20.40;99.20
19622;DHT22;9958;33.196;-97.114;2023-03-12T05:06:48;20.30;99.30
19622;DHT22;9958;33.196;-97.114;2023-03-12T05:09:16;20.30;99.40
19622;DHT22;9958;33.196;-97.114;2023-03-12T05:11:44;20.20;99.70
19622;DHT22;9958;33.196;-97.114;2023-03-12T05:14:13;20.10;99.90
19622;DHT22;9958;33.196;-97.114;2023-03-12T05:16:43;20.00;99.90
19622;DHT22;9958;33.196;-97.114;2023-03-12T05:19:11;19.90;99.90
19622;DHT22;9958;33.196;-97.114;2023-03-12T05:21:40;19.80;99.90
19622;DHT22;9958;33.196;-97.114;2023-03-12T05:24:09;19.70;99.90
19622;DHT22;9958;33.196;-97.114;2023-03-12T05:26:38;19.60;99.90
19622;DHT22;9958;33.196;-97.114;2023-03-12T05:29:06;19.50;99.90
19622;DHT22;9958;33.196;-97.114;2023-03-12T05:31:34;19.50;99.90
19622;DHT22;9958;33.196;-97.114;2023-03-12T05:34:05;19.40;99.90
19622;DHT22;9958;33.196;-97.114;2023-03-12T05:36:33;19.30;99.90
19622;DHT22;9958;33.196;-97.114;2023-03-12T05:39:01;19.20;99.90
19622;DHT22;9958;33.196;-97.114;2023-03-12T05:41:30;19.10;99.90
19622;DHT22;9958;33.196;-97.114;2023-03-12T05:43:58;19.00;99.90
19622;DHT22;9958;33.196;-97.114;2023-03-12T05:46:27;19.00;99.90
19622;DHT22;9958;33.196;-97.114;2023-03-12T05:48:56;18.90;99.90
19622;DHT22;9958;33.196;-97.114;2023-03-12T05:51:25;18.90;99.90
19622;DHT22;9958;33.196;-97.114;2023-03-12T05:53:54;18.90;99.90
19622;DHT22;9958;33.196;-97.114;2023-03-12T05:56:22;18.80;99.90
19622;DHT22;9958;33.196;-97.114;2023-03-12T05:58:51;18.70;99.90
19622;DHT22;9958;33.196;-97.114;2023-03-12T06:01:21;18.60;99.90
19622;DHT22;9958;33.196;-97.114;2023-03-12T06:03:50;18.50;99.90
19622;DHT22;9958;33.196;-97.114;2023-03-12T06:06:19;18.40;99.90
19622;DHT22;9958;33.196;-97.114;2023-03-12T06:08:50;18.30;99.90
19622;DHT22;9958;33.196;-97.114;2023-03-12T06:11:18;18.20;99.90
19622;DHT22;9958;33.196;-97.114;2023-03-12T06:13:47;18.10;99.90
19622;DHT22;9958;33.196;-97.114;2023-03-12T06:16:16;18.10;99.90
19622;DHT22;9958;33.196;-97.114;2023-03-12T06:18:45;18.00;99.90
19622;DHT22;9958;33.196;-97.114;2023-03-12T06:21:15;18.00;99.90
19622;DHT22;9958;33.196;-97.114;2023-03-12T06:23:44;17.90;99.90
19622;DHT22;9958;33.196;-97.114;2023-03-12T06:26:15;17.80;99.90
19622;DHT22;9958;33.196;-97.114;2023-03-12T06:28:45;17.70;99.90
19622;DHT22;9958;33.196;-97.114;2023-03-12T06:31:14;17.60;99.90
19622;DHT22;9958;33.196;-97.114;2023-03-12T06:33:43;17.50;99.90
19622;DHT22;9958;33.196;-97.114;2023-03-12T06:36:11;17.50;99.90
19622;DHT22;9958;33.196;-97.114;2023-03-12T06:38:40;17.40;99.90
19622;DHT22;9958;33.196;-97.114;2023-03-12T06:41:10;17.30;99.90
19622;DHT22;9958;33.196;-97.114;2023-03-12T06:43:41;17.30;99.90
19622;DHT22;9958;33.196;-97.114;2023-03-12T06:46:11;17.20;99.90
19622;DHT22;9958;33.196;-97.114;2023-03-12T06:48:40;17.20;99.90
19622;DHT22;9958;33.196;-97.114;2023-03-12T06:51:09;17.10;99.90
19622;DHT22;9958;33.196;-97.114;2023-03-12T06:53:37;17.00;99.90
19622;DHT22;9958;33.196;-97.114;2023-03-12T06:56:06;17.00;99.90
19622;DHT22;9958;33.196;-97.114;2023-03-12T06:58:35;16.80;99.90
19622;DHT22;9958;33.196;-97.114;2023-03-12T07:01:05;16.70;99.90
19622;DHT22;9958;33.196;-97.114;2023-03-12T07:03:34;16.60;99.90
19622;DHT22;9958;33.196;-97.114;2023-03-12T07:06:03;16.50;99.90
19622;DHT22;9958;33.196;-97.114;2023-03-12T07:08:31;16.50;99.90
19622;DHT22;9958;33.196;-97.114;2023-03-12T07:10:59;16.40;99.90
19622;DHT22;9958;33.196;-97.114;2023-03-12T07:13:28;16.30;99.90
19622;DHT22;9958;33.196;-97.114;2023-03-12T07:15:57;16.30;99.90
19622;DHT22;9958;33.196;-97.114;2023-03-12T07:18:27;16.20;99.90
19622;DHT22;9958;33.196;-97.114;2023-03-12T07:20:55;16.20;99.90
19622;DHT22;9958;33.196;-97.114;2023-03-12T07:23:24;16.10;99.90
19622;DHT22;9958;33.196;-97.114;2023-03-12T07:25:52;16.10;99.90
19622;DHT22;9958;33.196;-97.114;2023-03-12T07:28:21;16.10;99.90
19622;DHT22;9958;33.196;-97.114;2023-03-12T07:30:50;16.00;99.90
19622;DHT22;9958;33.196;-97.114;2023-03-12T07:33:20;15.90;99.90
19622;DHT22;9958;33.196;-97.114;2023-03-12T07:35:50;15.90;99.90
19622;DHT22;9958;33.196;-97.114;2023-03-12T07:38:18;15.90;99.90
19622;DHT22;9958;33.196;-97.114;2023-03-12T07:40:50;15.90;99.90
19622;DHT22;9958;33.196;-97.114;2023-03-12T07:43:18;15.80;99.90
19622;DHT22;9958;33.196;-97.114;2023-03-12T07:45:47;15.80;99.90
19622;DHT22;9958;33.196;-97.114;2023-03-12T07:48:15;15.80;99.90
19622;DHT22;9958;33.196;-97.114;2023-03-12T07:50:45;15.80;99.90
19622;DHT22;9958;33.196;-97.114;2023-03-12T07:53:15;15.80;99.90
19622;DHT22;9958;33.196;-97.114;2023-03-12T07:55:44;15.80;99.90
19622;DHT22;9958;33.196;-97.114;2023-03-12T07:58:13;15.80;99.90
19622;DHT22;9958;33.196;-97.114;2023-03-12T08:00:41;15.70;99.90
19622;DHT22;9958;33.196;-97.114;2023-03-12T08:03:10;15.70;99.90
19622;DHT22;9958;33.196;-97.114;2023-03-12T08:05:38;15.60;99.90
19622;DHT22;9958;33.196;-97.114;2023-03-12T08:08:07;15.60;99.90
19622;DHT22;9958;33.196;-97.114;2023-03-12T08:10:37;15.60;99.90
19622;DHT22;9958;33.196;-97.114;2023-03-12T08:13:05;15.50;99.90
19622;DHT22;9958;33.196;-97.114;2023-03-12T08:15:34;15.50;99.90
19622;DHT22;9958;33.196;-97.114;2023-03-12T08:18:02;15.50;99.90
19622;DHT22;9958;33.196;-97.114;2023-03-12T08:20:30;15.50;99.90
19622;DHT22;9958;33.196;-97.114;2023-03-12T08:22:59;15.30;99.90
19622;DHT22;9958;33.196;-97.114;2023-03-12T08:25:27;15.40;99.90
19622;DHT22;9958;33.196;-97.114;2023-03-12T08:27:57;15.30;99.90
19622;DHT22;9958;33.196;-97.114;2023-03-12T08:30:25;15.20;99.90
19622;DHT22;9958;33.196;-97.114;2023-03-12T08:32:54;15.20;99.90
19622;DHT22;9958;33.196;-97.114;2023-03-12T08:35:22;15.20;99.90
19622;DHT22;9958;33.196;-97.114;2023-03-12T08:37:50;15.20;99.90
19622;DHT22;9958;33.196;-97.114;2023-03-12T08:40:19;15.10;99.90
19622;DHT22;9958;33.196;-97.114;2023-03-12T08:42:47;15.10;99.90
19622;DHT22;9958;33.196;-97.114;2023-03-12T08:45:17;15.00;99.90
19622;DHT22;9958;33.196;-97.114;2023-03-12T08:47:45;15.00;99.90
19622;DHT22;9958;33.196;-97.114;2023-03-12T08:50:14;14.90;99.90
19622;DHT22;9958;33.196;-97.114;2023-03-12T08:52:43;14.80;99.90
19622;DHT22;9958;33.196;-97.114;2023-03-12T08:55:12;14.80;99.90
19622;DHT22;9958;33.196;-97.114;2023-03-12T08:57:40;14.70;99.90
19622;DHT22;9958;33.196;-97.114;2023-03-12T09:00:09;14.70;99.90
19622;DHT22;9958;33.196;-97.114;2023-03-12T09:02:42;14.70;99.90
19622;DHT22;9958;33.196;-97.114;2023-03-12T09:05:11;14.60;99.90
19622;DHT22;9958;33.196;-97.114;2023-03-12T09:07:40;14.50;99.90
19622;DHT22;9958;33.196;-97.114;2023-03-12T09:10:09;14.50;99.90
19622;DHT22;9958;33.196;-97.114;2023-03-12T09:12:37;14.50;99.90
19622;DHT22;9958;33.196;-97.114;2023-03-12T09:15:07;14.50;99.90
19622;DHT22;9958;33.196;-97.114;2023-03-12T09:17:36;14.50;99.90
19622;DHT22;9958;33.196;-97.114;2023-03-12T09:20:08;14.50;99.90
19622;DHT22;9958;33.196;-97.114;2023-03-12T09:22:39;14.50;99.90
19622;DHT22;9958;33.196;-97.114;2023-03-12T09:25:09;14.50;99.90
19622;DHT22;9958;33.196;-97.114;2023-03-12T09:27:38;14.50;99.90
19622;DHT22;9958;33.196;-97.114;2023-03-12T09:30:09;14.50;99.90
19622;DHT22;9958;33.196;-97.114;2023-03-12T09:32:38;14.50;99.90
19622;DHT22;9958;33.196;-97.114;2023-03-12T09:35:08;14.50;99.90
19622;DHT22;9958;33.196;-97.114;2023-03-12T09:37:36;14.40;99.90
19622;DHT22;9958;33.196;-97.114;2023-03-12T09:40:06;14.40;99.90
19622;DHT22;9958;33.196;-97.114;2023-03-12T09:42:39;14.40;99.90
19622;DHT22;9958;33.196;-97.114;2023-03-12T09:45:15;14.40;99.90
19622;DHT22;9958;33.196;-97.114;2023-03-12T09:47:47;14.40;99.90
19622;DHT22;9958;33.196;-97.114;2023-03-12T09:50:22;14.40;99.90
19622;DHT22;9958;33.196;-97.114;2023-03-12T09:52:57;14.40;99.90
19622;DHT22;9958;33.196;-97.114;2023-03-12T09:55:27;14.40;99.90
19622;DHT22;9958;33.196;-97.114;2023-03-12T09:57:58;14.40;99.90
19622;DHT22;9958;33.196;-97.114;2023-03-12T10:00:29;14.30;99.90
19622;DHT22;9958;33.196;-97.114;2023-03-12T10:03:26;14.30;99.90
19622;DHT22;9958;33.196;-97.114;2023-03-12T10:06:06;14.30;99.90
19622;DHT22;9958;33.196;-97.114;2023-03-12T10:08:45;14.30;99.90
19622;DHT22;9958;33.196;-97.114;2023-03-12T10:11:24;14.30;99.90
19622;DHT22;9958;33.196;-97.114;2023-03-12T10:14:10;14.30;99.90
19622;DHT22;9958;33.196;-97.114;2023-03-12T10:16:57;14.30;99.90
19622;DHT22;9958;33.196;-97.114;2023-03-12T10:19:44;14.30;99.90
19622;DHT22;9958;33.196;-97.114;2023-03-12T10:22:22;14.20;99.90
19622;DHT22;9958;33.196;-97.114;2023-03-12T10:24:59;14.20;99.90
19622;DHT22;9958;33.196;-97.114;2023-03-12T10:27:30;14.20;99.90
19622;DHT22;9958;33.196;-97.114;2023-03-12T10:30:04;14.10;99.90
19622;DHT22;9958;33.196;-97.114;2023-03-12T10:32:43;14.10;99.90
19622;DHT22;9958;33.196;-97.114;2023-03-12T10:35:17;14.10;99.90
19622;DHT22;9958;33.196;-97.114;2023-03-12T10:37:49;14.10;99.90
19622;DHT22;9958;33.196;-97.114;2023-03-12T10:40:21;14.00;99.90
19622;DHT22;9958;33.196;-97.114;2023-03-12T10:42:50;14.00;99.90
19622;DHT22;9958;33.196;-97.114;2023-03-12T10:45:27;13.90;99.90
19622;DHT22;9958;33.196;-97.114;2023-03-12T10:48:01;13.90;99.90
19622;DHT22;9958;33.196;-97.114;2023-03-12T10:50:31;13.90;99.90
19622;DHT22;9958;33.196;-97.114;2023-03-12T10:53:20;13.80;99.90
19622;DHT22;9958;33.196;-97.114;2023-03-12T10:56:05;13.80;99.90
19622;DHT22;9958;33.196;-97.114;2023-03-12T10:58:35;13.80;99.90
19622;DHT22;9958;33.196;-97.114;2023-03-12T11:01:06;13.80;99.90
19622;DHT22;9958;33.196;-97.114;2023-03-12T11:03:38;13.70;99.90
19622;DHT22;9958;33.196;-97.114;2023-03-12T11:06:07;13.70;99.90
19622;DHT22;9958;33.196;-97.114;2023-03-12T11:08:44;13.70;99.90
19622;DHT22;9958;33.196;-97.114;2023-03-12T11:11:31;13.60;99.90
19622;DHT22;9958;33.196;-97.114;2023-03-12T11:14:06;13.60;99.90
19622;DHT22;9958;33.196;-97.114;2023-03-12T11:16:35;13.50;99.90
19622;DHT22;9958;33.196;-97.114;2023-03-12T11:19:04;13.50;99.90
19622;DHT22;9958;33.196;-97.114;2023-03-12T11:21:33;13.50;99.90
19622;DHT22;9958;33.196;-97.114;2023-03-12T11:24:07;13.40;99.90
19622;DHT22;9958;33.196;-97.114;2023-03-12T11:26:43;13.50;99.90
19622;DHT22;9958;33.196;-97.114;2023-03-12T11:29:22;13.40;99.90
19622;DHT22;9958;33.196;-97.114;2023-03-12T11:31:57;13.30;99.90
19622;DHT22;9958;33.196;-97.114;2023-03-12T11:34:29;13.30;99.90
19622;DHT22;9958;33.196;-97.114;2023-03-12T11:37:06;13.40;99.90
19622;DHT22;9958;33.196;-97.114;2023-03-12T11:39:50;13.30;99.90
19622;DHT22;9958;33.196;-97.114;2023-03-12T11:42:34;13.30;99.90
19622;DHT22;9958;33.196;-97.114;2023-03-12T11:45:15;13.30;99.90
19622;DHT22;9958;33.196;-97.114;2023-03-12T11:47:58;13.20;99.90
19622;DHT22;9958;33.196;-97.114;2023-03-12T11:50:49;13.20;99.90
19622;DHT22;9958;33.196;-97.114;2023-03-12T11:53:53;13.20;99.90
19622;DHT22;9958;33.196;-97.114;2023-03-12T11:56:29;13.20;99.90
19622;DHT22;9958;33.196;-97.114;2023-03-12T11:59:08;13.10;99.90
19622;DHT22;9958;33.196;-97.114;2023-03-12T12:01:50;13.10;99.90
19622;DHT22;9958;33.196;-97.114;2023-03-12T12:04:40;13.00;99.90
19622;DHT22;9958;33.196;-97.114;2023-03-12T12:07:21;13.00;99.90
19622;DHT22;9958;33.196;-97.114;2023-03-12T12:09:56;13.00;99.90
19622;DHT22;9958;33.196;-97.114;2023-03-12T12:12:46;13.00;99.90
19622;DHT22;9958;33.196;-97.114;2023-03-12T12:15:26;13.00;99.90
19622;DHT22;9958;33.196;-97.114;2023-03-12T12:18:04;12.90;99.90
19622;DHT22;9958;33.196;-97.114;2023-03-12T12:20:42;12.90;99.90
19622;DHT22;9958;33.196;-97.114;2023-03-12T12:23:17;12.80;99.90
19622;DHT22;9958;33.196;-97.114;2023-03-12T12:25:58;12.80;99.90
19622;DHT22;9958;33.196;-97.114;2023-03-12T12:29:05;12.80;99.90
19622;DHT22;9958;33.196;-97.114;2023-03-12T12:31:43;12.80;99.90
19622;DHT22;9958;33.196;-97.114;2023-03-12T12:34:59;12.70;99.90
19622;DHT22;9958;33.196;-97.114;2023-03-12T12:37:40;12.70;99.90
19622;DHT22;9958;33.196;-97.114;2023-03-12T12:40:18;12.70;99.90
19622;DHT22;9958;33.196;-97.114;2023-03-12T12:42:57;12.60;99.90
19622;DHT22;9958;33.196;-97.114;2023-03-12T12:45:28;12.60;99.90
19622;DHT22;9958;33.196;-97.114;2023-03-12T12:48:00;12.60;99.90
19622;DHT22;9958;33.196;-97.114;2023-03-12T12:50:32;12.50;99.90
19622;DHT22;9958;33.196;-97.114;2023-03-12T12:53:20;12.50;99.90
19622;DHT22;9958;33.196;-97.114;2023-03-12T12:55:58;12.50;99.90
19622;DHT22;9958;33.196;-97.114;2023-03-12T13:01:33;12.50;99.90
19622;DHT22;9958;33.196;-97.114;2023-03-12T13:04:05;12.50;99.90
19622;DHT22;9958;33.196;-97.114;2023-03-12T13:07:01;12.50;99.90
19622;DHT22;9958;33.196;-97.114;2023-03-12T13:09:38;12.40;99.90
19622;DHT22;9958;33.196;-97.114;2023-03-12T13:12:17;12.40;99.90
19622;DHT22;9958;33.196;-97.114;2023-03-12T13:14:47;12.40;99.90
19622;DHT22;9958;33.196;-97.114;2023-03-12T13:17:29;12.40;99.90
19622;DHT22;9958;33.196;-97.114;2023-03-12T13:20:04;12.40;99.90
19622;DHT22;9958;33.196;-97.114;2023-03-12T13:22:56;12.40;99.90
19622;DHT22;9958;33.196;-97.114;2023-03-12T13:25:31;12.40;99.90
19622;DHT22;9958;33.196;-97.114;2023-03-12T13:28:37;12.30;99.90
19622;DHT22;9958;33.196;-97.114;2023-03-12T13:31:36;12.30;99.90
19622;DHT22;9958;33.196;-97.114;2023-03-12T13:34:32;12.30;99.90
19622;DHT22;9958;33.196;-97.114;2023-03-12T13:37:28;12.30;99.90
19622;DHT22;9958;33.196;-97.114;2023-03-12T13:40:00;12.30;99.90
19622;DHT22;9958;33.196;-97.114;2023-03-12T13:42:39;12.30;99.90
19622;DHT22;9958;33.196;-97.114;2023-03-12T13:45:26;12.40;99.90
19622;DHT22;9958;33.196;-97.114;2023-03-12T13:47:59;12.40;99.90
19622;DHT22;9958;33.196;-97.114;2023-03-12T13:50:30;12.40;99.90
19622;DHT22;9958;33.196;-97.114;2023-03-12T13:53:05;12.40;99.90
19622;DHT22;9958;33.196;-97.114;2023-03-12T13:55:36;12.50;99.90
19622;DHT22;9958;33.196;-97.114;2023-03-12T13:58:08;12.50;99.90
19622;DHT22;9958;33.196;-97.114;2023-03-12T14:00:38;12.50;99.90
19622;DHT22;9958;33.196;-97.114;2023-03-12T14:03:13;12.50;99.90
19622;DHT22;9958;33.196;-97.114;2023-03-12T14:05:49;12.60;99.90
19622;DHT22;9958;33.196;-97.114;2023-03-12T14:08:37;12.60;99.90
19622;DHT22;9958;33.196;-97.114;2023-03-12T14:11:35;12.70;99.90
19622;DHT22;9958;33.196;-97.114;2023-03-12T14:14:30;12.90;99.90
19622;DHT22;9958;33.196;-97.114;2023-03-12T14:17:14;13.00;99.90
19622;DHT22;9958;33.196;-97.114;2023-03-12T14:19:46;13.00;99.90
19622;DHT22;9958;33.196;-97.114;2023-03-12T14:22:17;13.10;99.90
19622;DHT22;9958;33.196;-97.114;2023-03-12T14:24:52;13.20;99.90
19622;DHT22;9958;33.196;-97.114;2023-03-12T14:27:24;13.20;99.90
19622;DHT22;9958;33.196;-97.114;2023-03-12T14:29:56;13.30;99.90
19622;DHT22;9958;33.196;-97.114;2023-03-12T14:32:28;13.30;99.90
19622;DHT22;9958;33.196;-97.114;2023-03-12T14:35:07;13.40;99.90
19622;DHT22;9958;33.196;-97.114;2023-03-12T14:37:43;13.50;99.90
19622;DHT22;9958;33.196;-97.114;2023-03-12T14:40:22;13.60;99.90
19622;DHT22;9958;33.196;-97.114;2023-03-12T14:42:51;13.60;99.90
19622;DHT22;9958;33.196;-97.114;2023-03-12T14:45:21;13.80;99.90
19622;DHT22;9958;33.196;-97.114;2023-03-12T14:47:52;13.90;99.90
19622;DHT22;9958;33.196;-97.114;2023-03-12T14:50:23;14.10;99.90
19622;DHT22;9958;33.196;-97.114;2023-03-12T14:52:54;14.10;99.90
19622;DHT22;9958;33.196;-97.114;2023-03-12T14:55:24;14.20;99.90
19622;DHT22;9958;33.196;-97.114;2023-03-12T14:58:03;14.10;99.90
19622;DHT22;9958;33.196;-97.114;2023-03-12T15:00:32;14.10;99.90
19622;DHT22;9958;33.196;-97.114;2023-03-12T15:03:03;14.10;99.90
19622;DHT22;9958;33.196;-97.114;2023-03-12T15:05:37;14.20;99.90
19622;DHT22;9958;33.196;-97.114;2023-03-12T15:08:13;14.20;99.90
19622;DHT22;9958;33.196;-97.114;2023-03-12T15:10:47;14.00;99.90
19622;DHT22;9958;33.196;-97.114;2023-03-12T15:13:16;13.90;99.90
19622;DHT22;9958;33.196;-97.114;2023-03-12T15:15:50;13.90;99.90
19622;DHT22;9958;33.196;-97.114;2023-03-12T15:18:21;14.00;99.90
19622;DHT22;9958;33.196;-97.114;2023-03-12T15:20:49;14.00;99.90
19622;DHT22;9958;33.196;-97.114;2023-03-12T15:23:21;14.00;99.90
19622;DHT22;9958;33.196;-97.114;2023-03-12T15:26:09;14.00;99.90
19622;DHT22;9958;33.196;-97.114;2023-03-12T15:28:37;13.90;99.90
19622;DHT22;9958;33.196;-97.114;2023-03-12T15:31:11;13.80;99.90
19622;DHT22;9958;33.196;-97.114;2023-03-12T15:33:41;13.80;99.90
19622;DHT22;9958;33.196;-97.114;2023-03-12T15:36:24;13.70;99.90
19622;DHT22;9958;33.196;-97.114;2023-03-12T15:38:57;13.80;99.90
19622;DHT22;9958;33.196;-97.114;2023-03-12T15:41:30;13.80;99.90
19622;DHT22;9958;33.196;-97.114;2023-03-12T15:44:01;13.80;99.90
19622;DHT22;9958;33.196;-97.114;2023-03-12T15:46:30;13.80;99.90
19622;DHT22;9958;33.196;-97.114;2023-03-12T15:48:59;14.00;99.90